sensor_id;sensor_type;location;lat;lon;timestamp;pressure;altitude;pressure_sealevel;temperature;humidity
55656;BME280;41530;52.382;5.270;2023-04-22T00:02:14;100996.72;;;18.30;46.85
55656;BME280;41530;52.382;5.270;2023-04-22T00:05:01;101011.41;;;18.34;47.05
55656;BME280;41530;52.382;5.270;2023-04-22T00:07:42;101081.34;;;18.72;47.10
55656;BME280;41530;52.382;5.270;2023-04-22T00:10:29;101078.69;;;18.72;46.83
55656;BME280;41530;52.382;5.270;2023-04-22T00:17:05;101019.59;;;18.41;46.55
55656;BME280;41530;52.382;5.270;2023-04-22T00:23:03;101063.84;;;18.69;46.91
55656;BME280;41530;52.382;5.270;2023-04-22T00:26:18;100986.84;;;18.23;46.96
55656;BME280;41530;52.382;5.270;2023-04-22T00:29:02;100968.25;;;18.13;47.19
55656;BME280;41530;52.382;5.270;2023-04-22T00:31:49;100967.41;;;18.12;46.84
55656;BME280;41530;52.382;5.270;2023-04-22T00:35:07;101019.44;;;18.42;46.81
55656;BME280;41530;52.382;5.270;2023-04-22T00:38:08;101005.38;;;18.32;46.90
55656;BME280;41530;52.382;5.270;2023-04-22T00:41:07;100975.25;;;18.14;46.90
55656;BME280;41530;52.382;5.270;2023-04-22T00:43:54;101007.22;;;18.32;46.74
55656;BME280;41530;52.382;5.270;2023-04-22T00:46:33;100969.41;;;18.10;46.80
55656;BME280;41530;52.382;5.270;2023-04-22T00:49:29;101003.31;;;18.26;46.71
55656;BME280;41530;52.382;5.270;2023-04-22T00:52:12;101008.34;;;18.29;46.75
55656;BME280;41530;52.382;5.270;2023-04-22T00:54:38;101018.41;;;18.35;46.89
55656;BME280;41530;52.382;5.270;2023-04-22T00:57:18;101058.75;;;18.58;46.98
55656;BME280;41530;52.382;5.270;2023-04-22T00:59:53;100987.56;;;18.15;46.78
55656;BME280;41530;52.382;5.270;2023-04-22T01:09:59;100982.19;;;18.07;46.71
55656;BME280;41530;52.382;5.270;2023-04-22T01:13:00;100976.75;;;17.99;46.38
55656;BME280;41530;52.382;5.270;2023-04-22T01:15:45;101011.78;;;18.22;46.60
55656;BME280;41530;52.382;5.270;2023-04-22T01:18:48;101034.69;;;18.32;46.91
55656;BME280;41530;52.382;5.270;2023-04-22T01:21:41;100994.38;;;18.09;46.75
55656;BME280;41530;52.382;5.270;2023-04-22T01:24:41;101010.69;;;18.14;46.83
55656;BME280;41530;52.382;5.270;2023-04-22T01:27:46;101027.81;;;18.30;46.67
55656;BME280;41530;52.382;5.270;2023-04-22T01:30:20;101064.28;;;18.47;46.53
55656;BME280;41530;52.382;5.270;2023-04-22T01:32:59;101034.69;;;18.32;46.70
55656;BME280;41530;52.382;5.270;2023-04-22T01:35:44;101047.56;;;18.37;46.57
55656;BME280;41530;52.382;5.270;2023-04-22T01:38:20;101053.72;;;18.37;46.46
55656;BME280;41530;52.382;5.270;2023-04-22T01:41:05;101027.97;;;18.28;46.70
55656;BME280;41530;52.382;5.270;2023-04-22T01:43:56;101058.88;;;18.39;46.52
55656;BME280;41530;52.382;5.270;2023-04-22T01:46:51;101033.31;;;18.28;46.66
55656;BME280;41530;52.382;5.270;2023-04-22T01:49:20;101030.94;;;18.25;46.47
55656;BME280;41530;52.382;5.270;2023-04-22T01:51:47;101041.28;;;18.28;46.51
55656;BME280;41530;52.382;5.270;2023-04-22T01:54:27;101032.63;;;18.26;46.45
55656;BME280;41530;52.382;5.270;2023-04-22T01:56:59;101046.88;;;18.35;46.44
55656;BME280;41530;52.382;5.270;2023-04-22T01:59:33;101041.84;;;18.32;46.44
55656;BME280;41530;52.382;5.270;2023-04-22T02:05:09;101036.75;;;18.21;46.32
55656;BME280;41530;52.382;5.270;2023-04-22T02:07:39;101027.38;;;18.16;46.48
55656;BME280;41530;52.382;5.270;2023-04-22T02:10:15;101029.72;;;18.20;46.49
55656;BME280;41530;52.382;5.270;2023-04-22T02:12:52;101029.88;;;18.18;46.28
55656;BME280;41530;52.382;5.270;2023-04-22T02:15:36;101050.97;;;18.29;46.26
55656;BME280;41530;52.382;5.270;2023-04-22T02:18:16;101030.63;;;18.28;46.30
55656;BME280;41530;52.382;5.270;2023-04-22T02:21:00;101024.84;;;18.15;46.37
55656;BME280;41530;52.382;5.270;2023-04-22T02:23:39;101031.31;;;18.12;46.29
55656;BME280;41530;52.382;5.270;2023-04-22T02:26:32;101020.81;;;18.11;46.41
55656;BME280;41530;52.382;5.270;2023-04-22T02:29:16;101024.31;;;18.11;46.37
55656;BME280;41530;52.382;5.270;2023-04-22T02:31:50;101030.88;;;18.17;46.35
55656;BME280;41530;52.382;5.270;2023-04-22T02:34:31;101040.25;;;18.21;46.27
55656;BME280;41530;52.382;5.270;2023-04-22T02:37:08;101016.78;;;18.07;46.35
55656;BME280;41530;52.382;5.270;2023-04-22T02:39:49;101040.38;;;18.20;46.30
55656;BME280;41530;52.382;5.270;2023-04-22T02:42:21;101020.00;;;18.10;46.30
55656;BME280;41530;52.382;5.270;2023-04-22T02:44:51;101010.63;;;18.06;46.32
55656;BME280;41530;52.382;5.270;2023-04-22T02:47:34;101019.16;;;18.10;46.33
55656;BME280;41530;52.382;5.270;2023-04-22T02:50:22;101030.19;;;18.15;46.43
55656;BME280;41530;52.382;5.270;2023-04-22T02:52:55;101033.53;;;18.17;46.37
55656;BME280;41530;52.382;5.270;2023-04-22T02:55:36;101020.50;;;18.14;46.29
55656;BME280;41530;52.382;5.270;2023-04-22T02:58:16;101021.34;;;18.14;46.58
55656;BME280;41530;52.382;5.270;2023-04-22T03:00:45;101017.34;;;18.10;46.34
55656;BME280;41530;52.382;5.270;2023-04-22T03:03:19;101028.22;;;18.17;46.30
55656;BME280;41530;52.382;5.270;2023-04-22T03:05:53;101000.56;;;18.00;46.33
55656;BME280;41530;52.382;5.270;2023-04-22T03:08:45;101018.84;;;18.13;46.22
55656;BME280;41530;52.382;5.270;2023-04-22T03:11:43;101020.66;;;18.12;46.40
55656;BME280;41530;52.382;5.270;2023-04-22T03:14:18;101008.41;;;18.02;46.19
55656;BME280;41530;52.382;5.270;2023-04-22T03:16:48;100996.09;;;18.01;46.23
55656;BME280;41530;52.382;5.270;2023-04-22T03:19:25;101002.94;;;18.03;46.44
55656;BME280;41530;52.382;5.270;2023-04-22T03:21:53;101027.66;;;18.13;46.41
55656;BME280;41530;52.382;5.270;2023-04-22T03:24:21;101001.97;;;18.04;46.25
55656;BME280;41530;52.382;5.270;2023-04-22T03:26:58;100999.75;;;18.00;46.24
55656;BME280;41530;52.382;5.270;2023-04-22T03:29:36;100987.59;;;17.97;46.53
55656;BME280;41530;52.382;5.270;2023-04-22T03:32:03;101007.28;;;18.04;46.26
55656;BME280;41530;52.382;5.270;2023-04-22T03:34:45;101001.25;;;18.02;46.22
55656;BME280;41530;52.382;5.270;2023-04-22T03:37:35;100995.09;;;18.02;46.30
55656;BME280;41530;52.382;5.270;2023-04-22T03:40:14;100994.41;;;18.00;46.28
55656;BME280;41530;52.382;5.270;2023-04-22T03:42:48;100977.94;;;17.96;46.05
55656;BME280;41530;52.382;5.270;2023-04-22T03:45:30;100990.75;;;18.01;46.30
55656;BME280;41530;52.382;5.270;2023-04-22T03:48:11;100993.97;;;18.04;46.08
55656;BME280;41530;52.382;5.270;2023-04-22T03:50:47;100969.25;;;17.94;46.17
55656;BME280;41530;52.382;5.270;2023-04-22T03:53:16;100969.75;;;17.98;46.21
55656;BME280;41530;52.382;5.270;2023-04-22T03:56:15;100971.06;;;17.94;46.24
55656;BME280;41530;52.382;5.270;2023-04-22T03:59:21;100966.75;;;17.93;46.12
55656;BME280;41530;52.382;5.270;2023-04-22T04:01:50;100964.63;;;17.96;46.23
55656;BME280;41530;52.382;5.270;2023-04-22T04:04:33;100951.06;;;17.90;46.04
55656;BME280;41530;52.382;5.270;2023-04-22T04:07:20;100976.47;;;18.02;46.34
55656;BME280;41530;52.382;5.270;2023-04-22T04:09:50;100961.56;;;17.91;46.01
55656;BME280;41530;52.382;5.270;2023-04-22T04:12:25;100964.91;;;17.93;46.14
55656;BME280;41530;52.382;5.270;2023-04-22T04:15:10;100966.88;;;17.91;46.11
55656;BME280;41530;52.382;5.270;2023-04-22T04:17:38;100962.56;;;17.90;46.16
55656;BME280;41530;52.382;5.270;2023-04-22T04:20:19;100969.94;;;17.96;45.88
55656;BME280;41530;52.382;5.270;2023-04-22T04:22:53;100950.66;;;17.85;46.29
55656;BME280;41530;52.382;5.270;2023-04-22T04:25:32;100942.31;;;17.79;46.02
55656;BME280;41530;52.382;5.270;2023-04-22T04:28:06;100947.19;;;17.84;46.02
55656;BME280;41530;52.382;5.270;2023-04-22T04:30:51;100943.00;;;17.82;45.94
55656;BME280;41530;52.382;5.270;2023-04-22T04:33:35;100944.97;;;17.79;46.01
55656;BME280;41530;52.382;5.270;2023-04-22T04:36:18;100939.66;;;17.79;46.04
55656;BME280;41530;52.382;5.270;2023-04-22T04:38:47;100945.34;;;17.85;45.88
55656;BME280;41530;52.382;5.270;2023-04-22T04:41:19;100938.00;;;17.78;46.04
55656;BME280;41530;52.382;5.270;2023-04-22T04:44:00;100936.84;;;17.81;46.15
55656;BME280;41530;52.382;5.270;2023-04-22T04:46:33;100943.72;;;17.84;46.00
55656;BME280;41530;52.382;5.270;2023-04-22T04:49:13;100943.84;;;17.82;46.01
55656;BME280;41530;52.382;5.270;2023-04-22T04:54:53;100955.34;;;17.83;45.95
55656;BME280;41530;52.382;5.270;2023-04-22T04:57:35;100949.19;;;17.82;45.96
55656;BME280;41530;52.382;5.270;2023-04-22T05:00:17;100944.28;;;17.77;46.12
55656;BME280;41530;52.382;5.270;2023-04-22T05:02:51;100942.47;;;17.78;46.08
55656;BME280;41530;52.382;5.270;2023-04-22T05:05:25;100936.31;;;17.77;45.88
55656;BME280;41530;52.382;5.270;2023-04-22T05:07:58;100942.19;;;17.81;45.96
55656;BME280;41530;52.382;5.270;2023-04-22T05:10:28;100942.19;;;17.81;46.07
55656;BME280;41530;52.382;5.270;2023-04-22T05:13:12;100934.63;;;17.76;46.00
55656;BME280;41530;52.382;5.270;2023-04-22T05:15:58;100936.84;;;17.81;46.14
55656;BME280;41530;52.382;5.270;2023-04-22T05:18:39;100952.53;;;17.84;45.99
55656;BME280;41530;52.382;5.270;2023-04-22T05:21:18;100943.00;;;17.82;46.03
55656;BME280;41530;52.382;5.270;2023-04-22T05:23:53;100940.66;;;17.78;46.17
55656;BME280;41530;52.382;5.270;2023-04-22T05:26:25;100955.69;;;17.88;46.09
55656;BME280;41530;52.382;5.270;2023-04-22T05:29:14;100949.75;;;17.76;45.94
55656;BME280;41530;52.382;5.270;2023-04-22T05:31:46;100961.31;;;17.85;46.08
55656;BME280;41530;52.382;5.270;2023-04-22T05:34:16;100947.94;;;17.76;46.15
55656;BME280;41530;52.382;5.270;2023-04-22T05:36:59;100947.25;;;17.74;46.17
55656;BME280;41530;52.382;5.270;2023-04-22T05:39:52;100948.22;;;17.73;46.36
55656;BME280;41530;52.382;5.270;2023-04-22T05:42:21;100961.31;;;17.85;46.43
55656;BME280;41530;52.382;5.270;2023-04-22T05:44:55;100961.78;;;17.80;46.27
55656;BME280;41530;52.382;5.270;2023-04-22T05:47:48;100942.06;;;17.73;46.16
55656;BME280;41530;52.382;5.270;2023-04-22T05:50:31;100970.97;;;17.86;46.49
55656;BME280;41530;52.382;5.270;2023-04-22T05:53:01;100951.16;;;17.80;46.17
55656;BME280;41530;52.382;5.270;2023-04-22T05:55:42;100964.81;;;17.85;46.43
55656;BME280;41530;52.382;5.270;2023-04-22T05:58:32;100949.06;;;17.74;46.67
55656;BME280;41530;52.382;5.270;2023-04-22T06:01:09;100949.63;;;17.77;46.57
55656;BME280;41530;52.382;5.270;2023-04-22T06:03:44;100950.91;;;17.73;46.45
55656;BME280;41530;52.382;5.270;2023-04-22T06:06:15;100970.97;;;17.86;46.35
55656;BME280;41530;52.382;5.270;2023-04-22T06:08:47;100943.25;;;17.70;46.54
55656;BME280;41530;52.382;5.270;2023-04-22T06:11:32;100947.53;;;17.71;46.69
55656;BME280;41530;52.382;5.270;2023-04-22T06:14:08;100962.34;;;17.84;46.50
55656;BME280;41530;52.382;5.270;2023-04-22T06:16:46;100960.50;;;17.84;46.50
55656;BME280;41530;52.382;5.270;2023-04-22T06:19:22;100944.59;;;17.74;46.29
55656;BME280;41530;52.382;5.270;2023-04-22T06:21:49;100937.75;;;17.72;46.42
55656;BME280;41530;52.382;5.270;2023-04-22T06:24:24;100925.75;;;17.68;46.52
55656;BME280;41530;52.382;5.270;2023-04-22T06:27:13;100956.16;;;17.83;46.38
55656;BME280;41530;52.382;5.270;2023-04-22T06:29:41;100925.59;;;17.69;46.51
55656;BME280;41530;52.382;5.270;2023-04-22T06:32:20;100955.00;;;17.86;47.08
55656;BME280;41530;52.382;5.270;2023-04-22T06:34:54;100938.22;;;17.85;46.90
55656;BME280;41530;52.382;5.270;2023-04-22T06:37:53;100923.00;;;17.77;46.52
55656;BME280;41530;52.382;5.270;2023-04-22T06:40:40;100925.38;;;17.80;46.72
55656;BME280;41530;52.382;5.270;2023-04-22T06:43:09;100920.06;;;17.80;46.63
55656;BME280;41530;52.382;5.270;2023-04-22T06:46:02;100898.38;;;17.75;46.85
55656;BME280;41530;52.382;5.270;2023-04-22T06:48:38;100907.72;;;17.79;46.58
55656;BME280;41530;52.382;5.270;2023-04-22T06:51:12;100896.94;;;17.81;46.52
55656;BME280;41530;52.382;5.270;2023-04-22T06:53:43;100902.94;;;17.83;46.95
55656;BME280;41530;52.382;5.270;2023-04-22T06:56:18;100893.16;;;17.84;46.44
55656;BME280;41530;52.382;5.270;2023-04-22T06:58:55;100905.97;;;17.88;46.96
55656;BME280;41530;52.382;5.270;2023-04-22T07:01:24;100896.94;;;17.81;46.71
55656;BME280;41530;52.382;5.270;2023-04-22T07:04:02;100898.28;;;17.85;46.78
55656;BME280;41530;52.382;5.270;2023-04-22T07:06:31;100886.66;;;17.86;46.88
55656;BME280;41530;52.382;5.270;2023-04-22T07:09:13;100887.03;;;17.91;46.80
55656;BME280;41530;52.382;5.270;2023-04-22T07:11:55;100876.69;;;17.88;46.71
55656;BME280;41530;52.382;5.270;2023-04-22T07:14:57;100895.41;;;17.96;46.58
55656;BME280;41530;52.382;5.270;2023-04-22T07:17:49;100866.75;;;17.90;47.12
55656;BME280;41530;52.382;5.270;2023-04-22T07:20:19;100881.63;;;18.01;46.68
55656;BME280;41530;52.382;5.270;2023-04-22T07:22:48;100872.59;;;17.94;46.73
55656;BME280;41530;52.382;5.270;2023-04-22T07:25:20;100882.47;;;18.01;46.74
55656;BME280;41530;52.382;5.270;2023-04-22T07:28:06;100882.63;;;18.00;46.96
55656;BME280;41530;52.382;5.270;2023-04-22T07:31:13;100870.28;;;17.99;46.58
55656;BME280;41530;52.382;5.270;2023-04-22T07:34:14;100877.69;;;18.05;46.11
55656;BME280;41530;52.382;5.270;2023-04-22T07:36:59;100889.16;;;18.05;46.37
55656;BME280;41530;52.382;5.270;2023-04-22T07:39:47;100874.31;;;18.03;46.32
55656;BME280;41530;52.382;5.270;2023-04-22T07:42:24;100892.88;;;18.12;46.35
55656;BME280;41530;52.382;5.270;2023-04-22T07:45:08;100876.31;;;18.01;46.61
55656;BME280;41530;52.382;5.270;2023-04-22T07:47:51;100892.22;;;18.10;46.62
55656;BME280;41530;52.382;5.270;2023-04-22T07:50:33;100894.88;;;18.10;46.65
55656;BME280;41530;52.382;5.270;2023-04-22T07:53:09;100879.34;;;18.06;46.82
55656;BME280;41530;52.382;5.270;2023-04-22T07:55:59;100891.88;;;18.13;46.44
55656;BME280;41530;52.382;5.270;2023-04-22T07:58:45;100881.06;;;18.15;46.63
55656;BME280;41530;52.382;5.270;2023-04-22T08:01:29;100892.00;;;18.30;46.83
55656;BME280;41530;52.382;5.270;2023-04-22T08:04:05;100889.66;;;18.27;46.82
55656;BME280;41530;52.382;5.270;2023-04-22T08:06:42;100911.72;;;18.37;46.91
55656;BME280;41530;52.382;5.270;2023-04-22T08:09:28;100878.94;;;18.19;46.78
55656;BME280;41530;52.382;5.270;2023-04-22T08:12:13;100904.78;;;18.26;47.17
55656;BME280;41530;52.382;5.270;2023-04-22T08:14:58;100917.13;;;18.27;46.77
55656;BME280;41530;52.382;5.270;2023-04-22T08:17:38;100896.44;;;18.21;46.80
55656;BME280;41530;52.382;5.270;2023-04-22T08:20:19;100902.59;;;18.22;46.83
55656;BME280;41530;52.382;5.270;2023-04-22T08:23:12;100891.28;;;18.20;47.08
55656;BME280;41530;52.382;5.270;2023-04-22T08:26:11;100887.81;;;18.27;47.06
55656;BME280;41530;52.382;5.270;2023-04-22T08:29:00;100878.31;;;18.25;47.01
55656;BME280;41530;52.382;5.270;2023-04-22T08:31:44;100882.88;;;18.32;46.79
55656;BME280;41530;52.382;5.270;2023-04-22T08:34:30;100874.94;;;18.40;46.93
55656;BME280;41530;52.382;5.270;2023-04-22T08:37:48;100900.25;;;18.62;46.91
55656;BME280;41530;52.382;5.270;2023-04-22T08:40:44;100855.19;;;18.51;46.88
55656;BME280;41530;52.382;5.270;2023-04-22T08:46:27;100840.97;;;18.60;46.74
55656;BME280;41530;52.382;5.270;2023-04-22T08:49:31;100844.31;;;18.70;46.52
55656;BME280;41530;52.382;5.270;2023-04-22T08:52:34;100846.38;;;18.76;46.47
55656;BME280;41530;52.382;5.270;2023-04-22T08:55:24;100836.50;;;18.69;46.51
55656;BME280;41530;52.382;5.270;2023-04-22T08:58:06;100831.16;;;18.69;46.52
55656;BME280;41530;52.382;5.270;2023-04-22T09:00:59;100840.16;;;18.68;46.43
55656;BME280;41530;52.382;5.270;2023-04-22T09:04:14;100835.50;;;18.70;46.55
55656;BME280;41530;52.382;5.270;2023-04-22T09:07:31;100839.16;;;18.69;46.50
55656;BME280;41530;52.382;5.270;2023-04-22T09:10:34;100868.56;;;18.85;46.54
55656;BME280;41530;52.382;5.270;2023-04-22T09:13:37;100835.19;;;18.73;46.25
55656;BME280;41530;52.382;5.270;2023-04-22T09:16:11;100849.06;;;18.84;46.51
55656;BME280;41530;52.382;5.270;2023-04-22T09:18:52;100834.19;;;18.74;46.27
55656;BME280;41530;52.382;5.270;2023-04-22T09:21:32;100829.53;;;18.76;46.29
55656;BME280;41530;52.382;5.270;2023-04-22T09:24:28;100830.69;;;18.73;46.37
55656;BME280;41530;52.382;5.270;2023-04-22T09:27:14;100832.22;;;18.76;46.16
55656;BME280;41530;52.382;5.270;2023-04-22T09:30:16;100835.72;;;18.76;46.37
55656;BME280;41530;52.382;5.270;2023-04-22T09:33:31;100839.53;;;18.82;46.69
55656;BME280;41530;52.382;5.270;2023-04-22T09:39:39;100813.88;;;18.81;46.74
55656;BME280;41530;52.382;5.270;2023-04-22T09:42:09;100831.41;;;18.92;47.10
55656;BME280;41530;52.382;5.270;2023-04-22T09:44:53;100811.06;;;18.82;47.28
55656;BME280;41530;52.382;5.270;2023-04-22T09:48:18;100821.59;;;18.92;47.41
55656;BME280;41530;52.382;5.270;2023-04-22T09:51:22;100818.44;;;18.97;47.80
55656;BME280;41530;52.382;5.270;2023-04-22T09:57:10;100819.28;;;19.05;48.11
55656;BME280;41530;52.382;5.270;2023-04-22T10:03:26;100782.31;;;19.02;48.75
55656;BME280;41530;52.382;5.270;2023-04-22T10:06:22;100773.13;;;19.05;48.93
55656;BME280;41530;52.382;5.270;2023-04-22T10:08:49;100767.31;;;19.09;48.67
55656;BME280;41530;52.382;5.270;2023-04-22T10:12:09;100750.31;;;19.10;48.64
55656;BME280;41530;52.382;5.270;2023-04-22T10:15:54;100752.34;;;19.16;49.12
55656;BME280;41530;52.382;5.270;2023-04-22T10:18:54;100757.16;;;19.21;48.65
55656;BME280;41530;52.382;5.270;2023-04-22T10:21:57;100782.34;;;19.35;48.83
55656;BME280;41530;52.382;5.270;2023-04-22T10:25:20;100805.41;;;19.44;49.02
55656;BME280;41530;52.382;5.270;2023-04-22T10:28:07;100776.50;;;19.31;48.94
55656;BME280;41530;52.382;5.270;2023-04-22T10:31:13;100807.22;;;19.43;49.28
55656;BME280;41530;52.382;5.270;2023-04-22T10:38:16;100797.19;;;19.45;49.41
55656;BME280;41530;52.382;5.270;2023-04-22T10:40:59;100792.88;;;19.44;49.38
55656;BME280;41530;52.382;5.270;2023-04-22T10:44:04;100783.03;;;19.45;49.29
55656;BME280;41530;52.382;5.270;2023-04-22T10:47:23;100804.09;;;19.56;48.72
55656;BME280;41530;52.382;5.270;2023-04-22T10:49:51;100799.25;;;19.60;48.61
55656;BME280;41530;52.382;5.270;2023-04-22T10:52:27;100805.78;;;19.65;49.68
55656;BME280;41530;52.382;5.270;2023-04-22T10:54:58;100806.28;;;19.69;49.14
55656;BME280;41530;52.382;5.270;2023-04-22T10:57:52;100790.75;;;19.72;49.91
55656;BME280;41530;52.382;5.270;2023-04-22T11:00:28;100799.25;;;19.76;49.35
55656;BME280;41530;52.382;5.270;2023-04-22T11:03:13;100785.56;;;19.79;49.43
55656;BME280;41530;52.382;5.270;2023-04-22T11:05:41;100786.41;;;19.79;49.10
55656;BME280;41530;52.382;5.270;2023-04-22T11:08:13;100781.59;;;19.83;49.46
55656;BME280;41530;52.382;5.270;2023-04-22T11:10:44;100789.41;;;19.84;49.45
55656;BME280;41530;52.382;5.270;2023-04-22T11:13:19;100790.75;;;19.80;49.99
55656;BME280;41530;52.382;5.270;2023-04-22T11:15:48;100797.41;;;19.84;48.86
55656;BME280;41530;52.382;5.270;2023-04-22T11:18:21;100795.94;;;19.82;48.68
55656;BME280;41530;52.382;5.270;2023-04-22T11:20:48;100825.63;;;19.79;48.27
55656;BME280;41530;52.382;5.270;2023-04-22T11:23:18;100818.94;;;19.75;48.42
55656;BME280;41530;52.382;5.270;2023-04-22T11:25:45;100824.78;;;19.70;48.54
55656;BME280;41530;52.382;5.270;2023-04-22T11:28:11;100817.59;;;19.71;48.65
55656;BME280;41530;52.382;5.270;2023-04-22T11:30:38;100816.94;;;19.69;48.86
55656;BME280;41530;52.382;5.270;2023-04-22T11:33:05;100819.63;;;19.69;48.85
55656;BME280;41530;52.382;5.270;2023-04-22T11:35:33;100793.09;;;19.67;48.89
55656;BME280;41530;52.382;5.270;2023-04-22T11:38:01;100797.44;;;19.68;48.90
55656;BME280;41530;52.382;5.270;2023-04-22T11:43:06;100802.63;;;19.70;49.26
55656;BME280;41530;52.382;5.270;2023-04-22T11:45:34;100800.09;;;19.68;48.98
55656;BME280;41530;52.382;5.270;2023-04-22T11:48:03;100802.94;;;19.67;48.62
55656;BME280;41530;52.382;5.270;2023-04-22T11:50:32;100811.28;;;19.64;48.35
55656;BME280;41530;52.382;5.270;2023-04-22T11:53:03;100812.28;;;19.63;48.70
55656;BME280;41530;52.382;5.270;2023-04-22T11:55:36;100817.75;;;19.61;48.36
55656;BME280;41530;52.382;5.270;2023-04-22T11:58:11;100801.91;;;19.60;48.33
55656;BME280;41530;52.382;5.270;2023-04-22T12:00:43;100785.22;;;19.57;48.77
55656;BME280;41530;52.382;5.270;2023-04-22T12:03:17;100789.78;;;19.57;47.99
55656;BME280;41530;52.382;5.270;2023-04-22T12:05:46;100789.09;;;19.55;48.30
55656;BME280;41530;52.382;5.270;2023-04-22T12:08:15;100811.91;;;19.57;48.51
55656;BME280;41530;52.382;5.270;2023-04-22T12:10:49;100838.59;;;19.57;48.84
55656;BME280;41530;52.382;5.270;2023-04-22T12:13:24;100844.63;;;19.60;48.67
55656;BME280;41530;52.382;5.270;2023-04-22T12:15:58;100852.13;;;19.56;48.73
55656;BME280;41530;52.382;5.270;2023-04-22T12:18:28;100827.13;;;19.57;48.98
55656;BME280;41530;52.382;5.270;2023-04-22T12:21:16;100828.75;;;19.58;48.68
55656;BME280;41530;52.382;5.270;2023-04-22T12:24:09;100828.75;;;19.58;49.26
55656;BME280;41530;52.382;5.270;2023-04-22T12:26:36;100821.78;;;19.57;48.84
55656;BME280;41530;52.382;5.270;2023-04-22T12:29:03;100827.59;;;19.61;49.00
55656;BME280;41530;52.382;5.270;2023-04-22T12:31:30;100830.94;;;19.63;49.00
55656;BME280;41530;52.382;5.270;2023-04-22T12:33:57;100835.44;;;19.62;49.17
55656;BME280;41530;52.382;5.270;2023-04-22T12:36:25;100832.09;;;19.60;49.22
55656;BME280;41530;52.382;5.270;2023-04-22T12:38:51;100842.63;;;19.62;48.97
55656;BME280;41530;52.382;5.270;2023-04-22T12:41:18;100849.94;;;19.60;48.60
55656;BME280;41530;52.382;5.270;2023-04-22T12:43:45;100840.28;;;19.58;48.99
55656;BME280;41530;52.382;5.270;2023-04-22T12:46:11;100840.13;;;19.60;48.90
55656;BME280;41530;52.382;5.270;2023-04-22T12:48:38;100809.91;;;19.60;49.13
55656;BME280;41530;52.382;5.270;2023-04-22T12:51:05;100821.28;;;19.62;48.85
55656;BME280;41530;52.382;5.270;2023-04-22T12:53:32;100831.09;;;19.61;48.70
55656;BME280;41530;52.382;5.270;2023-04-22T12:55:59;100843.78;;;19.59;48.65
55656;BME280;41530;52.382;5.270;2023-04-22T12:58:25;100857.13;;;19.59;48.67
55656;BME280;41530;52.382;5.270;2023-04-22T13:00:52;100859.78;;;19.59;48.63
55656;BME280;41530;52.382;5.270;2023-04-22T13:03:19;100868.16;;;19.56;48.77
55656;BME280;41530;52.382;5.270;2023-04-22T13:05:46;100869.97;;;19.55;48.66
55656;BME280;41530;52.382;5.270;2023-04-22T13:08:12;100872.66;;;19.55;48.84
55656;BME280;41530;52.382;5.270;2023-04-22T13:10:39;100865.63;;;19.54;48.68
55656;BME280;41530;52.382;5.270;2023-04-22T13:13:06;100840.28;;;19.50;48.75
55656;BME280;41530;52.382;5.270;2023-04-22T13:15:36;100837.44;;;19.52;48.76
55656;BME280;41530;52.382;5.270;2023-04-22T13:18:04;100833.94;;;19.51;48.85
55656;BME280;41530;52.382;5.270;2023-04-22T13:20:31;100834.78;;;19.52;48.82
55656;BME280;41530;52.382;5.270;2023-04-22T13:22:58;100826.78;;;19.52;48.82
55656;BME280;41530;52.382;5.270;2023-04-22T13:25:24;100829.28;;;19.53;48.86
55656;BME280;41530;52.382;5.270;2023-04-22T13:27:51;100816.78;;;19.54;49.03
55656;BME280;41530;52.382;5.270;2023-04-22T13:30:17;100786.06;;;19.42;49.42
55656;BME280;41530;52.382;5.270;2023-04-22T13:33:01;100792.53;;;19.47;49.77
55656;BME280;41530;52.382;5.270;2023-04-22T13:35:31;100791.38;;;19.42;49.89
55656;BME280;41530;52.382;5.270;2023-04-22T13:38:24;100825.94;;;19.60;50.81
55656;BME280;41530;52.382;5.270;2023-04-22T13:41:01;100796.59;;;19.51;50.28
55656;BME280;41530;52.382;5.270;2023-04-22T13:43:56;100799.41;;;19.50;50.60
55656;BME280;41530;52.382;5.270;2023-04-22T13:46:48;100793.25;;;19.49;50.46
55656;BME280;41530;52.382;5.270;2023-04-22T13:49:30;100799.09;;;19.53;50.54
55656;BME280;41530;52.382;5.270;2023-04-22T13:52:32;100826.97;;;19.67;51.18
55656;BME280;41530;52.382;5.270;2023-04-22T13:55:02;100809.25;;;19.57;50.82
55656;BME280;41530;52.382;5.270;2023-04-22T14:00:34;100807.63;;;19.56;50.76
55656;BME280;41530;52.382;5.270;2023-04-22T14:03:06;100823.09;;;19.61;50.58
55656;BME280;41530;52.382;5.270;2023-04-22T14:05:47;100815.94;;;19.62;50.84
55656;BME280;41530;52.382;5.270;2023-04-22T14:08:33;100815.63;;;19.56;50.14
55656;BME280;41530;52.382;5.270;2023-04-22T14:11:05;100823.25;;;19.60;50.21
55656;BME280;41530;52.382;5.270;2023-04-22T14:13:55;100818.44;;;19.63;50.67
55656;BME280;41530;52.382;5.270;2023-04-22T14:16:29;100821.09;;;19.63;50.21
55656;BME280;41530;52.382;5.270;2023-04-22T14:19:02;100834.44;;;19.71;50.53
55656;BME280;41530;52.382;5.270;2023-04-22T14:21:42;100819.28;;;19.64;50.51
55656;BME280;41530;52.382;5.270;2023-04-22T14:24:32;100823.78;;;19.63;50.70
55656;BME280;41530;52.382;5.270;2023-04-22T14:27:07;100811.28;;;19.55;50.54
55656;BME280;41530;52.382;5.270;2023-04-22T14:29:52;100821.28;;;19.62;50.30
55656;BME280;41530;52.382;5.270;2023-04-22T14:32:27;100837.78;;;19.73;50.38
55656;BME280;41530;52.382;5.270;2023-04-22T14:35:25;100809.25;;;19.57;50.41
55656;BME280;41530;52.382;5.270;2023-04-22T14:38:00;100816.94;;;19.61;50.37
55656;BME280;41530;52.382;5.270;2023-04-22T14:40:56;100837.31;;;19.70;50.37
55656;BME280;41530;52.382;5.270;2023-04-22T14:43:31;100850.66;;;19.70;50.33
55656;BME280;41530;52.382;5.270;2023-04-22T14:46:19;100842.28;;;19.65;50.77